O GG Online Championship começou recentemente na GGPoker e já se tornou a maior série online de poker de todos os tempos, graças ao seu enorme prêmio garantido de $ 150 milhões. A série vai até 31 de maio e contará com 131 eventos numerados ao longo de sua agenda lotada. Esses eventos também são divididos em até quatro níveis de buy-in, a fim de torná-los mais acessíveis e agradáveis ​​para diferentes jogadores. Versões de eventos de baixo buy-in começam apenas a partir de $5. Eventos de buy-in médio começam em $ 25, High a partir de $ 500 e Super High a partir de $ 2.500.

Juntamente com esta série de torneios, a GGPoker também lançou uma nova tabela de classificação dedicada ao festival. Continue lendo para mais destaques do GG Online Championship.

Destaques do Campeonato Online GG

Quando se trata de destaques, é muito difícil escolher um torneio entre uma infinidade de eventos oferecidos com tantos prêmios garantidos. No entanto, há um trio de eventos que merecem uma atenção especial, pois suas garantias combinadas chegam a quase inacreditáveis ​​$ 24 milhões.

O primeiro é o Main Event de $ 10.300 Super MILLION$ HR. O Dia 1 começará em 15 de maio. Os torneios Super MILLION$ sempre reúnem um field com os maiores nomes do poker. A edição do GG Online Championship será extra especial devido à sua enorme garantia de US$ 10 milhões em sua premiação. Portanto, podemos esperar que o prêmio principal seja de cerca de US $ 1,5 milhão.

O outro $10.300 Super MILLION$ HR Championship começará em 29 de maio com impressionantes $6 milhões garantidos.

Além disso, há o notável Main Event do GG Online Championship, que tem seu último dia marcado para 19 de maio. Este evento tem $8 milhões garantidos em sua premiação e um buy-in de $1.500. No entanto, os jogadores podem esperar vários satélites, que alimentarão este torneio em particular, pois serão necessárias 5.600 entradas para atingir a ambiciosa garantia. O jogador de pôquer mundialmente famoso e embaixador global da GGPoker, Daniel Negreanu, também está animado com o GG Online Championship. Aqui está o que ele tinha a dizer:

“É ótimo poder apresentar uma nova série de torneios que todos os jogadores da GGPoker podem desfrutar, e o GG Online Championship é a maior e melhor série online de todos os tempos. Estamos dobrando as garantias vistas em outros lugares; os jogadores deixarão muitos valor atrás deles se eles não mergulharem no GGpoker este mês.”

Aqui está a programação do GG Online Championship para esta semana:

Date Day Time Event Buy-in Guarantee
5/9 Mon 16:30 22-H: $525 Bounty Hunters HR [6-Max] $525 $300,000
5/9 Mon 16:30 22-M: $52.50 Bounty Hunters Daily Main [6-Max] $52.50 $200,000
5/9 Mon 16:30 22-L: $5.25 Bounty Hunters Mini Main [6-Max] $5.25 $40,000
5/9 Mon 18:00 23-H: $1,050 Monday Monster Stack HR $1,050 $525,000
5/9 Mon 18:00 23-M: $150 Monday Monster Stack $150 $250,000
5/9 Mon 18:00 23-L: $25 Mini Monster Stack $25 $100,000
5/9 Mon 19:30 24-H: $2,100 Bounty Big Game $2,100 $400,000
5/9 Mon 19:30 24-M: $210 Bounty Big Game $210 $200,000
5/9 Mon 19:30 24-L: $21 Mini Bounty Big Game $21 $100,000
5/10 Tue 14:30 25-H: $840 Tuesday Throwdown [Bounty 7-Max] $840 $250,000
5/10 Tue 14:30 25-M: $84 Tuesday Throwdown [Bounty 7-Max] $84 $125,000
5/10 Tue 14:30 25-L: $8.40 Tuesday Throwdown [Bounty 7-Max] $8.40 $40,000
5/10 Tue 16:30 26-S: $5,250 Bounty Hunters Super High Roller $5,250 $400,000
5/10 Tue 16:30 26-H: $525 Bounty Hunters HR [Deepstack] $525 $350,000
5/10 Tue 16:30 26-M: $52.50 Bounty Hunters Daily Main [Deepstack] $52.50 $250,000
5/10 Tue 16:30 26-L: $5.25 Bounty Hunters Mini Main [Deepstack] $5.25 $40,000
5/10 Tue 18:00 27-S: $10,300 Super Tuesday $10,300 $1,000,000
5/10 Tue 18:00 27-H: $1,050 Super Tuesday $1,050 $525,000
5/10 Tue 18:00 27-M: $150 Super Tuesday $150 $325,000
5/10 Tue 18:00 27-L: $25 Mini Super Tuesday $25 $100,000
5/10 Tue 19:00 28-H: $25,500 Super High Roller $25,500 $1,000,000
5/10 Tue 19:00 28-M: $2,625 High Roller $2,625 $400,000
5/10 Tue 19:00 28-L: $250 Mini High Roller $250 $250,000
5/10 Tue 20:40 29-H: $1,050 Omaholic Bounty Turbo $1,050 $100,000
5/10 Tue 20:40 29-M: $105 Omaholic Bounty Turbo $105 $40,000
5/10 Tue 20:40 29-L: $10.50 Omaholic Bounty Turbo $10.50 $25,000
5/11 Wed 15:00 30-H: $1,500 Wednesday Warm-Up [Deeper Stacks] $1,500 $200,000
5/11 Wed 15:00 30-M: $250 Wednesday Warm-Up [Deeper Stacks] $250 $150,000
5/11 Wed 15:00 30-L: $25 Wednesday Warm-Up [Deeper Stacks] $25 $100,000
5/11 Wed 16:30 31-S: $5,250 Bounty Hunters Super High Roller $5,250 $425,000
5/11 Wed 16:30 31-H: $525 Bounty Hunters HR [Big Bounties] $525 $275,000
5/11 Wed 16:30 31-M: $52.50 Bounty Hunters Daily Main [Big Bounties] $52.50 $200,000
5/11 Wed 16:30 31-L: $5.25 Bounty Hunters Mini Main [Big Bounties] $5.25 $40,000
5/11 Wed 18:00 32-H: $1,050 Wednesday Double Stack HR $1,050 $300,000
5/11 Wed 18:00 32-M: $150 Wednesday Double Stack $150 $200,000
5/11 Wed 18:00 32-L: $25 Mini Double Stack $25 $100,000
5/12 Thu 16:30 33-H: $525 Bounty Hunters HR [Classic] $525 $400,000
5/12 Thu 16:30 33-M: $52.50 Bounty Hunters Daily Main [Classic] $52.50 $250,000
5/12 Thu 16:30 33-L: $5.25 Bounty Hunters Mini Main [Classic] $5.25 $40,000
5/12 Thu 17:10 34-H: $1,050 Omaholic Main Event HR $1,050 $150,000
5/12 Thu 17:10 34-M: $150 Omaholic Main Event $150 $75,000
5/12 Thu 17:10 34-L: $25 Omaholic Mini Main $25 $50,000
5/12 Thu 18:00 35-S: $10,300 Thursday Thriller Bounty $10,300 $1,000,000
5/12 Thu 18:00 35-H: $1,050 Thursday Thriller Bounty $1,050 $750,000
5/12 Thu 18:00 35-M: $150 Thursday Thriller Bounty $150 $400,000
5/12 Thu 18:00 35-L: $25 Mini Thursday Thriller Bounty $25 $150,000
5/12 Thu 19:00 36-H: $25,500 Super High Roller $25,500 $1,000,000
5/12 Thu 19:00 36-M: $2,625 High Roller $2,625 $400,000
5/12 Thu 19:00 36-L: $250 Mini High Roller $250 $300,000
5/12 Thu 19:40 37-H: $5,250 Omaholic Bounty Super High Roller $5,250 $300,000
5/12 Thu 19:40 37-M: $525 Omaholic Bounty HR $525 $125,000
5/12 Thu 19:40 37-L: $52.50 Omaholic Bounty $52.50 $40,000
5/13 Fri 16:30 38-H: $525 Bounty Hunters HR [Ultradeep] $525 $150,000
5/13 Fri 16:30 38-M: $52.50 Bounty Hunters Daily Main [Ultradeep] $52.50 $150,000
5/13 Fri 16:30 38-L: $5.25 Bounty Hunters Mini Main [Ultradeep] $5.25 $40,000
5/13 Fri 18:00 39-H: $1,050 Friday Night Fight HR [Bounty 6-Max] $1,050 $200,000
5/13 Fri 18:00 39-M: $150 Friday Night Fight [Bounty 6-Max] $150 $100,000
5/13 Fri 18:00 39-L: $25 Mini Friday Night Fight [Bounty 6-Max] $25 $75,000
5/13 Fri 20:00 40-H: $500 TGIF Hyper Special [6-Max] $500 $75,000
5/13 Fri 20:00 40-M: $50 TGIF Hyper Special [6-Max] $50 $50,000
5/13 Fri 20:00 40-L: $5 TGIF Hyper Special [6-Max] $5 $25,000
5/14 Sat 15:00 41-H: $1,500 Saturday Superstack $1,500 $300,000
5/14 Sat 15:00 41-M: $250 Saturday Superstack $250 $150,000
5/14 Sat 15:00 41-L: $25 Saturday Superstack $25 $75,000
5/14 Sat 16:30 42-H: $525 Bounty Hunters HR [Double Stack] $525 $400,000
5/14 Sat 16:30 42-M: $52.50 Bounty Hunters Daily Main [Double Stack] $52.50 $250,000
5/14 Sat 16:30 42-L: $5.25 Bounty Hunters Mini Main [Double Stack] $5.25 $40,000
5/14 Sat 17:10 43-H: $1,050 Omaholic Main Event HR $1,050 $150,000
5/14 Sat 17:10 43-M: $150 Omaholic Main Event $150 $75,000
5/14 Sat 17:10 43-L: $25 Omaholic Mini Main $25 $50,000
5/14 Sat 18:00 44-H: $1,050 Saturday Knockout HR [Bounty] $1,050 $350,000
5/14 Sat 18:00 44-M: $150 Saturday Knockout [Bounty] $150 $200,000
5/14 Sat 18:00 44-L: $25 Mini Saturday Knockout [Bounty] $25 $100,000
5/14 Sat 19:40 45-H: $2,100 Omaholic Big Game Bounty HR $2,100 $250,000
5/14 Sat 19:40 45-M: $210 Omaholic Big Game Bounty $210 $100,000
5/14 Sat 19:40 45-L: $21 Omaholic Big Game Bounty Mini $21 $50,000
5/14 Sat 20:30 46-H: $2,100 MYSTERY BOUNTY HR, $2M GTD [Final Stage] $2,100 $2,000,000
5/14 Sat 20:30 46-M: $210 Mystery Bounty, $1M GTD [Final Stage] $210 $1,000,000
5/14 Sat 20:30 46-L:$25 Mystery Bounty, $500K GTD [Final Stage] $25 $500,000
5/15 Sun 14:00 47-H: $1,500 Sunday Marathon $1,500 $500,000
5/15 Sun 14:00 47-M: $300 Sunday Marathon $300 $300,000
5/15 Sun 14:00 47-L: $30 Sunday Marathon $30 $150,000
5/15 Sun 16:30 48-H: $5,250 Bounty Hunters Super High Roller $5,250 $1,250,000
5/15 Sun 16:30 48-M: $525 Bounty Hunters HR Main Event $525 $1,250,000
5/15 Sun 16:30 48-L: $52.50 Bounty Hunters Sunday Freezeout $52.50 $250,000
5/15 Sun 17:00 49-H: $1,050 GGMasters High Rollers $1,050 $1,000,000
5/15 Sun 17:00 49-M: $150 GGMasters $150 $600,000
5/15 Sun 17:00 49-L: $25 Mini GGMasters $25 $100,000
5/15 Sun 17:40 50-H: $5,250 Omaholic Bounty Super High Roller $5,250 $400,000
5/15 Sun 17:40 50-M: $525 Omaholic Bounty HR $525 $150,000
5/15 Sun 17:40 50-L: $52.50 Omaholic Mini Bounty HR $52.50 $50,000
5/15 Sun 18:30 52-M: $300 GGMasters Bounty King $300 $500,000
5/15 Sun 18:30 52-L: $31.50 Bounty King Jr [Freezeout] $31.50 $150,000
5/15 Sun 18:30 52-H: $3,150 Blade Bounty King $3,150 $125,000
5/15 Sun 19:00 51-H: $1,050 High Rollers Main Event $1,050 $750,000
5/15 Sun 19:00 51-M: $250 Sunday Main Event $250 $500,000
5/15 Sun 19:00 51-L: $50 Sunday Mini Main Event [Freezeout] $50 $250,000
5/15 Sun 20:00 53-H: $25,500 Sunday Million SHR $25,500 $2,000,000
5/15 Sun 20:00 53-M: $2,625 Blade Sunday Mulligan $2,625 $300,000
5/15 Sun 20:00 53-L: $250 Sunday Mulligan $250 $250,000
5/15 Sun 20:30 $50 MILLION$ Mini Main Event, $1M GTD [Final Day] $50 $1,000,000
5/15 Sun 20:30 $50 Omaholic MILLION$, $250K GTD [Final Day] $50 $250,000
5/15 Sun 21:00 54-H: $2,100 Sunday Heater HR [Bounty Turbo] $2,100 $300,000
5/15 Sun 21:00 54-M: $210 Sunday Heater [Bounty Turbo] $210 $250,000
5/15 Sun 21:00 54-L: $31.50 Mini Sunday Heater [Bounty Turbo] $31.50 $100,000
5/15 Sun 23:00 55-H: $1,500 Sunday Saver HR [Hyper] $1,500 $150,000
5/15 Sun 23:00 55-M: $250 Sunday Saver [Hyper] $250 $125,000
5/15 Sun 23:00 55-L: $25 Mini Sunday Saver [Hyper] $25 $50,000

Tabela de classificação de US$ 500.000 para jogadores do GG Online Championship

A GGPoker também decidiu apimentar a competição para sua nova série de torneios com 3 tabelas de classificação. Haverá um total de $ 500.000 em prêmios, com $ 250.000 indo para os primeiros colocados do ranking de alto nível, $ 150.000 no nível intermediário e $ 100.000 para o nível inferior.

A GGPoker também anunciou que transmitirá 3 eventos ao vivo em seu canal oficial no YouTube. Esses eventos são:

  • US$ 2,5 milhões GTD Super MILLION$ High Rollers em 10 de maio
  • $10 milhões GTD Super MILLION$ HR Main Event em 24 de maio
  • $6 milhões GTD Super MILLION$ HR Championship em 31 de maio.
Leave A Comment

Aplicam-se termos e condições. Esta oferta é apenas para novos clientes com pelo menos 18 anos. Se precisar de ajuda com seu padrão de jogo e sentir que algo dá errado, visite begambleaware.com

Últimas mudanças

As últimas mudanças da página “GG Online Championship começa com $ 150M garantidos
estavam em 16. May 2022 por YPD implementado.